Time;durP1;ratioP1;P1;durP2;ratioP2;P2;SDS_P1;SDS_P2;PMS_P1;PMS_P2;Temp;Humidity;BMP_temperature;BMP_pressure;BME280_temperature;BME280_humidity;BME280_pressure;Samples;Min_cycle;Max_cycle;Signal;HPM_P1;HPM_P2
2023/01/24 00:00:05;;;;;;;64.70;55.08;;;12.70;63.70;;;;;;4943274;28;89952;-51
2023/01/24 00:02:31;;;;;;;62.83;54.92;;;12.70;63.70;;;;;;4945542;28;91473;-54
2023/01/24 00:04:57;;;;;;;63.50;55.15;;;12.70;63.70;;;;;;4946588;28;91158;-51
2023/01/24 00:07:22;;;;;;;62.38;55.40;;;12.70;63.50;;;;;;4935164;28;90636;-54
2023/01/24 00:09:48;;;;;;;62.42;55.30;;;12.60;63.50;;;;;;4930052;28;89245;-55
2023/01/24 00:12:14;;;;;;;64.10;55.42;;;12.60;63.60;;;;;;4934583;28;91639;-48
2023/01/24 00:14:39;;;;;;;63.15;55.22;;;12.60;63.60;;;;;;4945760;28;91613;-47
2023/01/24 00:17:07;;;;;;;63.25;55.42;;;12.60;63.70;;;;;;4935970;28;91150;-54
2023/01/24 00:19:33;;;;;;;62.35;55.08;;;12.60;63.60;;;;;;4940715;28;90113;-56
2023/01/24 00:21:59;;;;;;;63.30;55.15;;;12.60;63.60;;;;;;4936504;28;94672;-54
2023/01/24 00:24:26;;;;;;;64.20;55.08;;;12.60;63.40;;;;;;4936281;28;90779;-55
2023/01/24 00:26:51;;;;;;;63.22;55.35;;;12.60;63.30;;;;;;4952463;28;90280;-52
2023/01/24 00:29:17;;;;;;;61.50;54.63;;;12.60;63.40;;;;;;4937458;28;90446;-49
2023/01/24 00:31:43;;;;;;;63.33;55.53;;;12.60;63.10;;;;;;4939839;28;90756;-54
2023/01/24 00:34:08;;;;;;;62.30;54.75;;;12.60;63.30;;;;;;4944034;28;90977;-56
2023/01/24 00:36:34;;;;;;;62.67;55.20;;;12.60;63.40;;;;;;4938029;28;90984;-54
2023/01/24 00:38:59;;;;;;;62.63;54.90;;;12.60;63.30;;;;;;4951696;28;91943;-53
2023/01/24 00:41:25;;;;;;;63.28;54.92;;;12.60;63.40;;;;;;4941418;28;93480;-45
2023/01/24 00:43:51;;;;;;;62.03;54.53;;;12.60;63.40;;;;;;4945803;28;96125;-54
2023/01/24 00:46:16;;;;;;;64.75;55.58;;;12.60;63.20;;;;;;4940819;28;91482;-55
2023/01/24 00:48:42;;;;;;;63.33;55.42;;;12.60;63.30;;;;;;4939736;28;91652;-47
2023/01/24 00:51:08;;;;;;;63.70;55.03;;;12.60;63.00;;;;;;4943673;28;90974;-54
2023/01/24 00:53:34;;;;;;;63.90;55.33;;;12.60;63.20;;;;;;4938648;28;90392;-55
2023/01/24 00:55:59;;;;;;;62.60;55.15;;;12.60;63.30;;;;;;4934828;28;90592;-52
2023/01/24 00:58:25;;;;;;;61.92;53.85;;;12.60;63.30;;;;;;4936003;28;91362;-55
2023/01/24 01:00:55;;;;;;;62.03;54.30;;;12.60;63.30;;;;;;4938609;28;90203;-53
2023/01/24 01:03:21;;;;;;;61.90;54.47;;;12.60;63.30;;;;;;4940693;28;91383;-55
2023/01/24 01:05:47;;;;;;;63.47;55.17;;;12.60;63.20;;;;;;4935962;28;94645;-51
2023/01/24 01:08:13;;;;;;;62.15;54.55;;;12.60;63.30;;;;;;4934060;28;90183;-55
2023/01/24 01:10:39;;;;;;;62.60;55.05;;;12.60;63.10;;;;;;4929335;28;92973;-53
2023/01/24 01:13:05;;;;;;;62.28;54.92;;;12.60;62.50;;;;;;4932813;28;94284;-52
2023/01/24 01:15:31;;;;;;;62.63;55.40;;;12.60;63.00;;;;;;4947596;28;90787;-45
2023/01/24 01:17:58;;;;;;;62.75;54.97;;;12.60;62.80;;;;;;4942701;28;90767;-55
2023/01/24 01:20:25;;;;;;;62.22;54.92;;;12.60;62.90;;;;;;4935271;28;94951;-54
2023/01/24 01:22:50;;;;;;;63.80;54.88;;;12.60;63.10;;;;;;4941559;28;90701;-53
2023/01/24 01:25:16;;;;;;;61.83;54.05;;;12.60;63.00;;;;;;4937470;28;91436;-53
2023/01/24 01:27:42;;;;;;;62.63;54.80;;;12.60;63.10;;;;;;4946046;28;90589;-54
2023/01/24 01:30:08;;;;;;;61.33;54.08;;;12.60;63.00;;;;;;4939372;28;92201;-55
2023/01/24 01:32:33;;;;;;;61.75;53.90;;;12.60;63.10;;;;;;4934093;28;92916;-51
2023/01/24 01:34:59;;;;;;;62.38;53.22;;;12.60;63.00;;;;;;4944875;28;96479;-56
2023/01/24 01:37:25;;;;;;;62.13;54.28;;;12.60;62.90;;;;;;4943648;28;90395;-55
2023/01/24 01:39:51;;;;;;;62.38;54.03;;;12.60;63.00;;;;;;4936007;28;94213;-55
2023/01/24 01:42:16;;;;;;;61.40;54.10;;;12.60;62.80;;;;;;4932072;28;92157;-51
2023/01/24 01:44:46;;;;;;;61.15;54.08;;;12.60;63.00;;;;;;4937039;28;93014;-56
2023/01/24 01:47:32;;;;;;;63.33;55.35;;;12.60;62.70;;;;;;4931767;28;91522;-54
2023/01/24 01:50:35;;;;;;;62.60;54.35;;;12.60;62.80;;;;;;4925354;28;91483;-52
2023/01/24 01:53:01;;;;;;;61.85;53.95;;;12.60;63.00;;;;;;4928973;28;91134;-55
2023/01/24 01:55:36;;;;;;;60.30;53.50;;;12.60;63.00;;;;;;4936629;28;94184;-56
2023/01/24 01:58:02;;;;;;;62.60;54.33;;;12.50;63.10;;;;;;4929027;28;90638;-50
2023/01/24 02:00:28;;;;;;;62.55;53.88;;;12.50;63.00;;;;;;4938768;28;91814;-53
2023/01/24 02:03:37;;;;;;;59.17;52.63;;;12.60;63.00;;;;;;4930685;28;91735;-52
2023/01/24 02:05:48;;;;;;;61.72;53.90;;;12.60;62.90;;;;;;4931382;28;91800;-57
2023/01/24 02:08:20;;;;;;;61.83;53.90;;;12.60;62.90;;;;;;4932147;28;90999;-55
2023/01/24 02:13:31;;;;;;;60.35;53.10;;;12.60;62.80;;;;;;4938941;28;89841;-56
2023/01/24 02:16:02;;;;;;;59.97;53.10;;;12.60;62.80;;;;;;4945245;28;93538;-55
2023/01/24 02:18:30;;;;;;;60.58;53.58;;;12.60;63.00;;;;;;4942791;28;95061;-47
2023/01/24 02:20:56;;;;;;;61.53;53.13;;;12.50;62.70;;;;;;4942931;28;92096;-56
2023/01/24 02:23:33;;;;;;;58.42;51.97;;;12.60;63.10;;;;;;4938033;28;90596;-52
2023/01/24 02:26:06;;;;;;;62.45;53.72;;;12.50;63.00;;;;;;4943737;28;89711;-48
2023/01/24 02:28:33;;;;;;;60.13;53.45;;;12.60;62.70;;;;;;4948096;28;91420;-53
2023/01/24 02:31:00;;;;;;;62.15;53.60;;;12.60;62.70;;;;;;4944253;28;92701;-55
2023/01/24 02:33:26;;;;;;;60.75;53.15;;;12.50;62.80;;;;;;4939640;28;90742;-57
2023/01/24 02:36:12;;;;;;;60.63;53.92;;;12.50;62.90;;;;;;4934056;28;92236;-49
2023/01/24 02:38:40;;;;;;;60.25;53.20;;;12.50;62.80;;;;;;4938104;28;95059;-52
2023/01/24 02:41:07;;;;;;;59.13;52.63;;;12.50;62.80;;;;;;4938985;28;91797;-56
2023/01/24 02:43:37;;;;;;;59.03;52.53;;;12.60;62.70;;;;;;4935137;28;91393;-55
2023/01/24 02:46:03;;;;;;;58.90;52.42;;;12.60;62.40;;;;;;4937996;28;92534;-57
2023/01/24 02:48:29;;;;;;;58.22;51.75;;;12.60;62.50;;;;;;4939034;28;90632;-55
2023/01/24 02:53:39;;;;;;;59.92;53.25;;;12.60;62.40;;;;;;4940561;28;95883;-55
2023/01/24 02:58:52;;;;;;;59.80;53.22;;;12.60;62.50;;;;;;4930856;28;89997;-57
2023/01/24 03:01:19;;;;;;;60.67;52.50;;;12.60;62.50;;;;;;4938706;28;91913;-46
2023/01/24 03:03:46;;;;;;;58.05;51.70;;;12.60;62.60;;;;;;4910158;28;100286;-47
2023/01/24 03:06:13;;;;;;;60.45;53.55;;;12.60;62.50;;;;;;4917023;28;91805;-55
2023/01/24 03:08:39;;;;;;;58.65;52.20;;;12.50;62.60;;;;;;4912894;28;94469;-55
2023/01/24 03:11:06;;;;;;;59.63;52.78;;;12.50;62.70;;;;;;4906644;28;93399;-46
2023/01/24 03:35:29;;;;;;;59.95;52.47;;;12.40;62.60;;;;;;4933271;28;95134;-55
2023/01/24 03:40:39;;;;;;;59.92;52.97;;;12.50;62.60;;;;;;4945485;28;90886;-55
2023/01/24 03:43:05;;;;;;;59.30;52.78;;;12.50;62.60;;;;;;4939417;28;90580;-57
2023/01/24 03:45:34;;;;;;;59.55;52.95;;;12.50;62.60;;;;;;4938189;28;90196;-55
2023/01/24 03:48:02;;;;;;;59.72;52.78;;;12.50;62.60;;;;;;4930381;28;92976;-56
2023/01/24 03:53:18;;;;;;;60.08;53.08;;;12.50;62.50;;;;;;4935561;28;90413;-56
2023/01/24 03:55:44;;;;;;;59.40;52.85;;;12.50;62.40;;;;;;4934074;28;92874;-55
2023/01/24 03:58:11;;;;;;;58.95;52.15;;;12.50;62.30;;;;;;4928900;28;90303;-54
2023/01/24 04:00:38;;;;;;;59.50;52.88;;;12.50;62.50;;;;;;4935037;28;92369;-47
2023/01/24 04:03:04;;;;;;;59.25;52.53;;;12.50;63.10;;;;;;4939365;28;95241;-52
2023/01/24 04:05:31;;;;;;;59.28;52.70;;;12.50;62.40;;;;;;4933298;28;92193;-57
2023/01/24 04:07:57;;;;;;;59.30;52.55;;;12.40;62.40;;;;;;4936645;28;90525;-53
2023/01/24 04:10:23;;;;;;;58.70;52.35;;;12.40;62.40;;;;;;4936809;28;91652;-51
2023/01/24 04:12:49;;;;;;;59.25;52.75;;;12.50;62.30;;;;;;4940184;28;90059;-54
2023/01/24 04:15:21;;;;;;;60.40;52.88;;;12.40;62.40;;;;;;4926825;28;91578;-55
2023/01/24 04:17:47;;;;;;;58.72;52.20;;;12.50;62.30;;;;;;4947776;28;91654;-54
2023/01/24 04:20:13;;;;;;;57.63;51.38;;;12.50;62.50;;;;;;4937295;28;90223;-45
2023/01/24 04:22:39;;;;;;;58.40;52.05;;;12.50;62.50;;;;;;4927971;28;93698;-49
2023/01/24 04:25:05;;;;;;;59.00;52.35;;;12.40;62.40;;;;;;4948781;28;91062;-47
2023/01/24 04:27:31;;;;;;;59.95;52.53;;;12.50;62.50;;;;;;4966014;28;91302;-54
2023/01/24 04:29:57;;;;;;;60.33;53.50;;;12.50;62.40;;;;;;4939679;28;90413;-46
2023/01/24 04:32:22;;;;;;;59.83;52.30;;;12.50;62.20;;;;;;4923690;28;95513;-53
2023/01/24 04:34:48;;;;;;;58.80;52.40;;;12.50;62.20;;;;;;4933567;28;92879;-52
2023/01/24 04:37:13;;;;;;;59.13;52.47;;;12.50;62.20;;;;;;4935327;28;90864;-54
2023/01/24 04:39:39;;;;;;;59.15;52.45;;;12.40;62.30;;;;;;4942133;28;92341;-53
2023/01/24 04:42:05;;;;;;;59.05;52.47;;;12.50;62.30;;;;;;4928908;28;92543;-53
2023/01/24 04:44:32;;;;;;;60.33;53.25;;;12.50;62.30;;;;;;4938322;28;93820;-52
2023/01/24 04:46:59;;;;;;;60.53;53.15;;;12.40;62.20;;;;;;4934999;28;91419;-55
2023/01/24 04:49:24;;;;;;;59.15;52.55;;;12.40;62.30;;;;;;4931481;28;90465;-56
2023/01/24 04:51:50;;;;;;;59.60;53.10;;;12.50;62.20;;;;;;4924076;28;93450;-49
2023/01/24 04:54:17;;;;;;;59.80;53.10;;;12.50;62.10;;;;;;4931385;28;92209;-56
2023/01/24 04:56:43;;;;;;;59.92;53.33;;;12.40;62.10;;;;;;4936727;28;89838;-53
2023/01/24 04:59:11;;;;;;;58.15;51.80;;;12.50;61.90;;;;;;4933360;28;94754;-55
2023/01/24 05:01:37;;;;;;;60.42;52.35;;;12.50;62.00;;;;;;4931858;28;92596;-54
2023/01/24 05:04:02;;;;;;;57.92;51.45;;;12.50;62.10;;;;;;4938111;28;93566;-46
2023/01/24 05:06:30;;;;;;;61.08;53.08;;;12.50;62.10;;;;;;4934058;28;89934;-55
2023/01/24 05:08:56;;;;;;;60.42;53.20;;;12.40;62.00;;;;;;4940547;28;91077;-56
2023/01/24 05:11:22;;;;;;;59.60;53.03;;;12.40;61.90;;;;;;4927737;28;92467;-54
2023/01/24 05:13:48;;;;;;;60.47;52.65;;;12.40;62.10;;;;;;4940433;28;90911;-52
2023/01/24 05:16:14;;;;;;;59.80;53.22;;;12.50;62.10;;;;;;4932709;28;91556;-55
2023/01/24 05:18:40;;;;;;;60.97;53.45;;;12.50;61.90;;;;;;4928879;28;91455;-51
2023/01/24 05:21:16;;;;;;;60.53;53.13;;;12.50;62.00;;;;;;4933791;28;93516;-53
2023/01/24 05:23:42;;;;;;;59.42;52.90;;;12.40;62.00;;;;;;4932917;28;92520;-53
2023/01/24 05:26:08;;;;;;;61.08;53.40;;;12.50;62.00;;;;;;4934759;28;94999;-54
2023/01/24 05:28:34;;;;;;;59.78;52.53;;;12.40;61.90;;;;;;4939919;28;90643;-53
2023/01/24 05:31:03;;;;;;;59.47;52.33;;;12.40;62.00;;;;;;4927560;28;91388;-50
2023/01/24 05:33:29;;;;;;;59.42;52.30;;;12.40;62.10;;;;;;4929815;28;94491;-55
2023/01/24 05:36:03;;;;;;;58.30;51.88;;;12.40;62.10;;;;;;4928631;28;91662;-55
2023/01/24 05:38:28;;;;;;;59.38;52.08;;;12.40;62.10;;;;;;4933395;28;93589;-55
2023/01/24 05:40:59;;;;;;;60.33;52.15;;;12.40;61.90;;;;;;4934296;28;93490;-46
2023/01/24 05:43:25;;;;;;;59.85;53.22;;;12.40;61.80;;;;;;4944378;28;91976;-54
2023/01/24 05:45:51;;;;;;;59.42;52.65;;;12.40;61.80;;;;;;4928217;28;90947;-49
2023/01/24 05:48:16;;;;;;;59.70;53.20;;;12.40;61.90;;;;;;4932751;28;91150;-57
2023/01/24 05:50:42;;;;;;;60.75;53.67;;;12.40;61.80;;;;;;4927162;28;93781;-56
2023/01/24 05:53:08;;;;;;;61.40;53.65;;;12.40;61.90;;;;;;4935924;28;95453;-52
2023/01/24 05:55:33;;;;;;;61.25;53.30;;;12.40;61.90;;;;;;4935140;28;92970;-56
2023/01/24 05:58:00;;;;;;;58.67;52.20;;;12.40;61.90;;;;;;4942550;28;89144;-53
2023/01/24 06:00:25;;;;;;;59.35;51.95;;;12.40;62.70;;;;;;4938992;28;91389;-53
2023/01/24 06:02:51;;;;;;;60.35;52.53;;;12.40;62.00;;;;;;4931155;28;91907;-54
2023/01/24 06:05:17;;;;;;;59.30;52.78;;;12.40;62.00;;;;;;4945110;28;91556;-56
2023/01/24 06:07:43;;;;;;;60.35;52.88;;;12.40;61.80;;;;;;4946128;28;90383;-49
2023/01/24 06:10:09;;;;;;;58.78;52.35;;;12.40;61.80;;;;;;4936177;28;91352;-48
2023/01/24 06:12:34;;;;;;;58.67;52.28;;;12.40;61.90;;;;;;4919290;28;93718;-49
2023/01/24 06:15:00;;;;;;;60.20;53.58;;;12.40;61.80;;;;;;4931683;28;90821;-53
2023/01/24 06:17:26;;;;;;;60.03;52.80;;;12.40;61.80;;;;;;4943413;28;90139;-52
2023/01/24 06:19:51;;;;;;;59.20;52.58;;;12.40;61.60;;;;;;4933053;28;98041;-49
2023/01/24 06:22:28;;;;;;;60.75;53.35;;;12.40;61.70;;;;;;4922808;28;91952;-46
2023/01/24 06:24:54;;;;;;;58.53;52.05;;;12.40;61.70;;;;;;4929535;28;92860;-56
2023/01/24 06:27:20;;;;;;;60.92;52.45;;;12.50;61.90;;;;;;4917836;28;96846;-52
2023/01/24 06:29:46;;;;;;;59.72;52.60;;;12.40;61.90;;;;;;4918342;28;97273;-55
2023/01/24 06:32:20;;;;;;;59.92;53.00;;;12.40;61.70;;;;;;4924976;28;92288;-49
2023/01/24 06:34:58;;;;;;;60.58;52.35;;;12.40;61.80;;;;;;4937475;28;95187;-55
2023/01/24 06:37:46;;;;;;;61.03;53.53;;;12.40;61.60;;;;;;4937660;28;89713;-46
2023/01/24 06:40:14;;;;;;;59.50;52.22;;;12.30;61.80;;;;;;4929595;28;91497;-49
2023/01/24 06:42:40;;;;;;;58.67;51.60;;;12.40;61.80;;;;;;4927642;28;91216;-56
2023/01/24 06:45:07;;;;;;;58.80;52.35;;;12.40;62.00;;;;;;4935079;28;92456;-55
2023/01/24 06:47:33;;;;;;;59.15;52.55;;;12.40;61.90;;;;;;4936124;28;91661;-55
2023/01/24 06:49:59;;;;;;;60.15;52.53;;;12.40;62.00;;;;;;4942429;28;91934;-56
2023/01/24 06:52:24;;;;;;;58.15;51.80;;;12.50;61.90;;;;;;4934651;28;90673;-50
2023/01/24 06:54:50;;;;;;;60.03;52.85;;;12.50;61.90;;;;;;4933444;28;92588;-54
2023/01/24 06:57:16;;;;;;;58.20;51.72;;;12.50;61.70;;;;;;4941931;28;90054;-50
2023/01/24 06:59:41;;;;;;;59.83;52.88;;;12.40;61.70;;;;;;4931400;28;94179;-53
2023/01/24 07:02:09;;;;;;;61.40;52.90;;;12.40;61.70;;;;;;4934050;28;90670;-54
2023/01/24 07:04:36;;;;;;;58.95;52.35;;;12.40;61.80;;;;;;4932638;28;90321;-56
2023/01/24 07:07:02;;;;;;;60.67;53.00;;;12.40;61.80;;;;;;4934047;28;89990;-47
2023/01/24 07:09:28;;;;;;;59.90;53.20;;;12.40;61.60;;;;;;4923451;28;93115;-56
2023/01/24 07:11:56;;;;;;;60.17;52.75;;;12.40;61.40;;;;;;4923998;28;92473;-55
2023/01/24 07:14:22;;;;;;;59.10;52.55;;;12.30;61.30;;;;;;4936500;28;91480;-54
2023/01/24 07:16:51;;;;;;;58.85;52.38;;;12.30;61.30;;;;;;4940251;28;90178;-54
2023/01/24 07:19:21;;;;;;;58.03;51.60;;;12.20;61.40;;;;;;4932451;28;93875;-54
2023/01/24 07:21:47;;;;;;;59.35;52.65;;;12.30;61.50;;;;;;4922588;28;91459;-53
2023/01/24 07:24:20;;;;;;;58.78;52.38;;;12.30;61.50;;;;;;4921609;28;91081;-54
2023/01/24 07:26:46;;;;;;;62.60;53.40;;;12.30;61.50;;;;;;4923360;28;97634;-55
2023/01/24 07:29:11;;;;;;;61.58;54.00;;;12.30;61.50;;;;;;4934126;28;91174;-48
2023/01/24 07:31:38;;;;;;;62.45;53.03;;;12.30;61.50;;;;;;4929209;28;95509;-55
2023/01/24 07:34:03;;;;;;;61.20;53.70;;;12.30;61.40;;;;;;4930785;28;91591;-54
2023/01/24 07:36:29;;;;;;;59.50;53.03;;;12.30;61.40;;;;;;4941358;28;89345;-54
2023/01/24 07:38:55;;;;;;;60.42;53.25;;;12.30;61.50;;;;;;4933391;28;90654;-51
2023/01/24 07:41:21;;;;;;;59.63;53.05;;;12.30;61.40;;;;;;4925731;28;94806;-48
2023/01/24 07:43:47;;;;;;;60.83;53.38;;;12.20;61.50;;;;;;4936926;28;92949;-53
2023/01/24 07:46:12;;;;;;;62.22;54.47;;;12.30;61.60;;;;;;4947453;28;93437;-55
2023/01/24 07:48:38;;;;;;;63.72;55.15;;;12.30;61.50;;;;;;4937824;28;91329;-57
2023/01/24 07:51:04;;;;;;;62.35;54.38;;;12.30;61.40;;;;;;4940552;28;92755;-55
2023/01/24 07:53:30;;;;;;;63.90;55.20;;;12.30;61.50;;;;;;4940180;28;91846;-52
2023/01/24 07:55:59;;;;;;;64.43;56.28;;;12.30;61.50;;;;;;4942315;28;95226;-53
2023/01/24 07:58:24;;;;;;;65.07;55.95;;;12.30;61.80;;;;;;4949736;28;91203;-50
2023/01/24 08:00:51;;;;;;;64.68;56.25;;;12.30;61.80;;;;;;4945345;28;91630;-54
2023/01/24 08:03:17;;;;;;;64.20;56.95;;;12.30;61.90;;;;;;4943456;28;96861;-52
2023/01/24 08:05:43;;;;;;;66.55;56.72;;;12.30;61.80;;;;;;4935673;28;94000;-52
2023/01/24 08:08:09;;;;;;;72.25;61.08;;;12.30;61.70;;;;;;4939958;28;91210;-49
2023/01/24 08:10:35;;;;;;;70.50;60.00;;;12.20;62.60;;;;;;4939039;28;92027;-50
2023/01/24 08:13:00;;;;;;;67.80;58.58;;;12.30;62.70;;;;;;4931023;28;91788;-54
2023/01/24 08:15:26;;;;;;;71.15;59.88;;;12.30;62.40;;;;;;4927976;28;91133;-56
2023/01/24 08:17:52;;;;;;;70.13;58.72;;;12.30;62.50;;;;;;4933657;28;92521;-57
2023/01/24 08:20:18;;;;;;;69.63;59.28;;;12.30;62.30;;;;;;4941093;28;90976;-45
2023/01/24 08:22:43;;;;;;;68.78;58.95;;;12.30;62.30;;;;;;4932799;28;90996;-57
2023/01/24 08:25:09;;;;;;;71.50;59.65;;;12.20;62.30;;;;;;4940054;28;94842;-56
2023/01/24 08:27:39;;;;;;;70.15;58.85;;;12.20;62.10;;;;;;4939418;28;90767;-55
2023/01/24 08:30:05;;;;;;;71.25;58.92;;;12.20;62.50;;;;;;4943109;28;92400;-56
2023/01/24 08:32:31;;;;;;;68.35;58.63;;;12.20;62.50;;;;;;4925017;28;92440;-53
2023/01/24 08:34:57;;;;;;;68.25;58.08;;;12.20;62.50;;;;;;4933218;28;91289;-49
2023/01/24 08:37:23;;;;;;;68.40;59.03;;;12.20;62.60;;;;;;4929203;28;92450;-49
2023/01/24 08:39:49;;;;;;;70.45;59.88;;;12.10;62.50;;;;;;4941482;28;91114;-55
2023/01/24 08:42:15;;;;;;;68.03;58.75;;;12.20;63.50;;;;;;4941010;28;91121;-56
2023/01/24 08:44:40;;;;;;;70.72;60.03;;;12.20;62.60;;;;;;4934223;28;96709;-46
2023/01/24 08:47:06;;;;;;;68.90;59.15;;;12.20;62.60;;;;;;4929442;28;96043;-52
2023/01/24 08:49:32;;;;;;;69.50;58.60;;;12.20;62.60;;;;;;4937291;28;98473;-56
2023/01/24 08:52:01;;;;;;;67.65;58.35;;;12.20;62.60;;;;;;4932798;28;90603;-56
2023/01/24 08:54:28;;;;;;;66.10;57.95;;;12.10;62.30;;;;;;4937106;28;90478;-55
2023/01/24 08:56:54;;;;;;;64.85;56.15;;;12.10;62.50;;;;;;4934768;28;92791;-55
2023/01/24 08:59:20;;;;;;;67.25;57.63;;;12.10;63.00;;;;;;4953020;28;90750;-49
2023/01/24 09:01:46;;;;;;;66.65;57.28;;;12.10;62.90;;;;;;4932672;28;91824;-53
2023/01/24 09:04:12;;;;;;;67.95;57.80;;;12.10;62.80;;;;;;4938232;28;89898;-56
2023/01/24 09:06:38;;;;;;;65.72;57.22;;;12.10;63.00;;;;;;4939710;28;91292;-56
2023/01/24 09:09:04;;;;;;;65.65;56.63;;;12.10;63.00;;;;;;4920061;28;91344;-56
2023/01/24 09:11:30;;;;;;;66.90;57.67;;;12.10;62.90;;;;;;4929406;28;91295;-52
2023/01/24 09:13:56;;;;;;;67.00;57.42;;;12.10;62.80;;;;;;4929986;28;89500;-49
2023/01/24 09:16:22;;;;;;;67.78;57.83;;;12.30;64.20;;;;;;4923789;28;94478;-46
2023/01/24 09:18:50;;;;;;;65.43;56.88;;;12.70;63.70;;;;;;4929926;28;93775;-56
2023/01/24 09:21:17;;;;;;;64.88;56.63;;;13.00;61.80;;;;;;4937254;28;92700;-57
2023/01/24 09:23:42;;;;;;;66.93;56.90;;;13.20;60.80;;;;;;4935052;28;92809;-57
2023/01/24 09:26:08;;;;;;;64.75;56.22;;;13.40;60.10;;;;;;4926032;28;96109;-56
2023/01/24 09:28:34;;;;;;;64.43;56.25;;;13.40;59.80;;;;;;4931156;28;98986;-53
2023/01/24 09:31:00;;;;;;;65.15;57.33;;;13.50;59.70;;;;;;4931878;28;91985;-46
2023/01/24 09:33:26;;;;;;;66.32;56.42;;;13.50;59.50;;;;;;4938250;28;91241;-46
2023/01/24 09:35:58;;;;;;;65.38;56.53;;;13.60;59.00;;;;;;4916384;28;94720;-58
2023/01/24 09:38:26;;;;;;;65.57;56.35;;;13.60;58.80;;;;;;4936829;28;90181;-58
2023/01/24 09:41:10;;;;;;;64.97;56.47;;;13.60;58.60;;;;;;4941959;28;91829;-48
2023/01/24 09:43:55;;;;;;;64.22;55.20;;;13.60;58.50;;;;;;4946057;28;90500;-57
2023/01/24 09:46:32;;;;;;;63.72;55.65;;;13.60;58.40;;;;;;4946898;28;91142;-58
2023/01/24 09:49:07;;;;;;;65.05;56.20;;;13.70;58.40;;;;;;4941882;28;91698;-57
2023/01/24 09:51:35;;;;;;;66.40;55.75;;;13.70;58.40;;;;;;4946528;28;90059;-58
2023/01/24 09:54:05;;;;;;;64.10;55.85;;;13.70;58.30;;;;;;4940673;28;90859;-56
2023/01/24 09:56:36;;;;;;;64.57;55.20;;;13.70;58.20;;;;;;4939085;28;91391;-51
2023/01/24 09:59:39;;;;;;;64.18;55.78;;;13.70;58.90;;;;;;4942125;28;91092;-54
2023/01/24 10:02:18;;;;;;;65.10;56.03;;;13.80;58.20;;;;;;4932619;28;90066;-59
2023/01/24 10:04:46;;;;;;;64.20;55.95;;;13.80;57.90;;;;;;4926652;28;92131;-57
2023/01/24 10:07:20;;;;;;;64.68;56.20;;;13.80;57.80;;;;;;4921721;28;91232;-58
2023/01/24 10:10:21;;;;;;;67.93;58.88;;;13.80;58.20;;;;;;4914170;28;95105;-50
2023/01/24 10:13:16;;;;;;;73.87;62.07;;;13.70;60.10;;;;;;4935226;28;90909;-56
2023/01/24 10:16:14;;;;;;;72.45;61.65;;;13.80;60.10;;;;;;4948838;28;92174;-57
2023/01/24 10:18:58;;;;;;;73.63;60.45;;;13.80;60.30;;;;;;4929310;28;91318;-58
2023/01/24 10:21:45;;;;;;;74.05;58.72;;;14.00;60.10;;;;;;4929156;28;95723;-56
2023/01/24 10:24:17;;;;;;;70.05;58.05;;;14.10;59.90;;;;;;4949710;28;97378;-55
2023/01/24 10:26:51;;;;;;;67.68;57.70;;;14.50;60.20;;;;;;4924774;28;90668;-52
2023/01/24 10:29:23;;;;;;;73.03;57.88;;;14.90;59.10;;;;;;4915481;28;91759;-55
2023/01/24 10:31:58;;;;;;;70.18;57.45;;;15.10;57.70;;;;;;4935993;28;94858;-51
2023/01/24 10:34:36;;;;;;;71.57;57.33;;;15.20;57.50;;;;;;4934392;28;90078;-58
2023/01/24 10:37:23;;;;;;;71.25;57.35;;;15.40;58.30;;;;;;4937414;28;93330;-57
2023/01/24 10:39:49;;;;;;;70.20;57.53;;;15.60;56.80;;;;;;4940399;28;91096;-57
2023/01/24 10:42:26;;;;;;;67.57;56.47;;;15.60;56.00;;;;;;4945107;28;91917;-54
2023/01/24 10:44:55;;;;;;;68.95;56.72;;;15.70;55.80;;;;;;4940629;28;93876;-57
2023/01/24 10:47:49;;;;;;;66.97;56.50;;;15.80;55.50;;;;;;4941204;28;93198;-56
2023/01/24 10:50:17;;;;;;;70.30;56.08;;;15.90;55.00;;;;;;4950392;28;91747;-56
2023/01/24 10:52:46;;;;;;;67.22;56.03;;;15.90;54.80;;;;;;4947416;28;92921;-47
2023/01/24 10:55:34;;;;;;;69.40;55.95;;;15.90;54.70;;;;;;4944010;28;90104;-58
2023/01/24 10:58:20;;;;;;;69.03;55.47;;;16.00;54.50;;;;;;4952493;28;88809;-57
2023/01/24 11:00:48;;;;;;;66.97;55.67;;;16.10;54.30;;;;;;4947498;28;94213;-56
2023/01/24 11:03:34;;;;;;;70.50;56.15;;;16.20;54.00;;;;;;4936123;28;94336;-58
2023/01/24 11:06:01;;;;;;;69.20;56.22;;;16.30;53.70;;;;;;4933062;28;95416;-56
2023/01/24 11:08:35;;;;;;;67.97;55.80;;;16.40;53.50;;;;;;4933591;28;92328;-54
2023/01/24 11:11:02;;;;;;;69.03;54.92;;;16.40;53.30;;;;;;4956720;28;92243;-57
2023/01/24 11:13:40;;;;;;;69.82;56.38;;;16.40;53.10;;;;;;4931355;28;92668;-51
2023/01/24 11:16:18;;;;;;;67.95;56.25;;;16.40;53.10;;;;;;4930971;28;92769;-56
2023/01/24 11:18:52;;;;;;;68.13;55.65;;;16.40;53.00;;;;;;4940662;28;94852;-57
2023/01/24 11:21:19;;;;;;;67.18;55.75;;;16.40;53.00;;;;;;4939428;28;91989;-59
2023/01/24 11:23:57;;;;;;;67.13;55.45;;;16.50;52.90;;;;;;4950540;28;89292;-57
2023/01/24 11:26:31;;;;;;;69.38;55.25;;;16.50;52.80;;;;;;4952288;28;89914;-55
2023/01/24 11:29:15;;;;;;;69.78;55.17;;;16.60;52.80;;;;;;4947782;28;89717;-50
2023/01/24 11:32:36;;;;;;;67.25;55.58;;;16.60;52.70;;;;;;4942342;28;94979;-57
2023/01/24 11:35:12;;;;;;;67.75;55.47;;;16.60;52.70;;;;;;4948321;28;91057;-57
2023/01/24 11:37:55;;;;;;;71.20;56.25;;;16.60;52.40;;;;;;4943652;28;90073;-55
2023/01/24 11:40:40;;;;;;;68.65;56.00;;;16.60;52.50;;;;;;4940460;28;92231;-55
2023/01/24 11:43:27;;;;;;;68.43;55.28;;;16.60;52.40;;;;;;4954476;28;94032;-57
2023/01/24 11:46:02;;;;;;;69.03;56.55;;;16.60;52.30;;;;;;4938548;28;91743;-58
2023/01/24 11:48:38;;;;;;;68.20;56.05;;;16.60;52.40;;;;;;4947811;28;90162;-56
2023/01/24 11:51:34;;;;;;;69.03;55.83;;;16.60;52.40;;;;;;4947084;28;89925;-58
2023/01/24 11:54:40;;;;;;;68.97;55.75;;;16.60;52.50;;;;;;4942762;28;92131;-56
2023/01/24 11:57:15;;;;;;;68.93;56.63;;;16.60;52.20;;;;;;4921351;28;92977;-57
2023/01/24 11:59:54;;;;;;;69.32;56.58;;;16.70;52.10;;;;;;4932973;28;91116;-56
2023/01/24 12:03:01;;;;;;;68.65;56.22;;;16.60;52.70;;;;;;4939767;28;94099;-51
2023/01/24 12:05:44;;;;;;;73.68;58.35;;;16.70;52.20;;;;;;4942748;28;93101;-55
2023/01/24 12:08:16;;;;;;;70.15;56.22;;;16.70;52.60;;;;;;4945894;28;91383;-56
2023/01/24 12:11:00;;;;;;;70.70;57.28;;;16.60;52.30;;;;;;4937098;28;91388;-57
2023/01/24 12:14:04;;;;;;;69.47;57.17;;;16.60;52.20;;;;;;4945508;28;96024;-57
2023/01/24 12:16:42;;;;;;;71.25;56.17;;;16.60;52.10;;;;;;4942669;28;91258;-58
2023/01/24 12:19:39;;;;;;;68.50;57.03;;;16.70;52.20;;;;;;4941962;28;90997;-57
2023/01/24 12:22:22;;;;;;;71.28;57.88;;;16.70;51.90;;;;;;4946065;28;91194;-57
2023/01/24 12:24:55;;;;;;;69.18;56.83;;;16.70;51.80;;;;;;4937430;28;90173;-57
2023/01/24 12:27:25;;;;;;;74.32;57.25;;;16.70;52.50;;;;;;4945467;28;92208;-55
2023/01/24 12:29:59;;;;;;;71.97;57.30;;;16.70;51.90;;;;;;4938759;28;93053;-53
2023/01/24 12:32:38;;;;;;;70.97;57.40;;;16.70;51.90;;;;;;4943752;28;90240;-52
2023/01/24 12:35:35;;;;;;;73.28;57.85;;;16.70;52.00;;;;;;4949855;28;95793;-56
2023/01/24 12:38:08;;;;;;;69.07;57.53;;;16.60;51.90;;;;;;4947374;28;91356;-56
2023/01/24 12:40:55;;;;;;;72.78;58.53;;;16.60;52.00;;;;;;4944739;28;91265;-58
2023/01/24 12:43:59;;;;;;;73.18;57.95;;;16.60;52.10;;;;;;4946946;28;91076;-57
2023/01/24 12:46:58;;;;;;;69.45;57.72;;;16.60;52.20;;;;;;4937427;28;92687;-58
2023/01/24 12:49:30;;;;;;;70.30;57.17;;;16.50;52.10;;;;;;4940479;28;96043;-56
2023/01/24 12:52:07;;;;;;;69.55;57.15;;;16.50;52.00;;;;;;4950178;28;95140;-57
2023/01/24 12:54:40;;;;;;;71.07;58.05;;;16.40;52.00;;;;;;4942372;28;95341;-58
2023/01/24 12:57:27;;;;;;;70.32;57.97;;;16.50;52.10;;;;;;4933278;28;90285;-56
2023/01/24 12:59:53;;;;;;;73.53;58.13;;;16.40;51.90;;;;;;4941998;28;91197;-57
2023/01/24 13:02:41;;;;;;;71.45;58.85;;;16.50;52.10;;;;;;4933329;28;94603;-57
2023/01/24 13:05:37;;;;;;;69.95;57.65;;;16.40;52.10;;;;;;4946754;28;92385;-57
2023/01/24 13:08:53;;;;;;;67.35;56.45;;;16.40;52.10;;;;;;4949227;28;90899;-58
2023/01/24 13:11:22;;;;;;;69.05;56.70;;;16.30;52.30;;;;;;4889483;28;91744;-57
2023/01/24 13:14:11;;;;;;;72.95;58.75;;;16.30;52.10;;;;;;4924002;28;91041;-56
2023/01/24 13:16:59;;;;;;;74.20;60.00;;;16.30;52.30;;;;;;4938249;28;90143;-57
2023/01/24 13:19:28;;;;;;;71.00;58.30;;;16.30;52.20;;;;;;4941059;28;91232;-50